sensor_id;sensor_type;location;lat;lon;timestamp;temperature;humidity
44729;DHT22;30457;53.590;9.922;2023-07-13T00:01:07;21.60;54.00
44729;DHT22;30457;53.590;9.922;2023-07-13T00:05:32;21.70;54.20
44729;DHT22;30457;53.590;9.922;2023-07-13T00:09:58;21.50;54.10
44729;DHT22;30457;53.590;9.922;2023-07-13T00:14:27;21.50;54.10
44729;DHT22;30457;53.590;9.922;2023-07-13T00:18:52;21.40;54.00
44729;DHT22;30457;53.590;9.922;2023-07-13T00:23:18;21.40;54.10
44729;DHT22;30457;53.590;9.922;2023-07-13T00:27:44;21.30;54.00
44729;DHT22;30457;53.590;9.922;2023-07-13T00:32:11;21.30;54.00
44729;DHT22;30457;53.590;9.922;2023-07-13T00:36:36;21.20;53.90
44729;DHT22;30457;53.590;9.922;2023-07-13T00:41:03;21.20;53.90
44729;DHT22;30457;53.590;9.922;2023-07-13T00:49:55;21.10;53.80
44729;DHT22;30457;53.590;9.922;2023-07-13T00:54:33;21.00;53.80
44729;DHT22;30457;53.590;9.922;2023-07-13T00:59:02;21.00;54.10
44729;DHT22;30457;53.590;9.922;2023-07-13T01:03:29;20.90;54.00
44729;DHT22;30457;53.590;9.922;2023-07-13T01:07:54;20.90;54.10
44729;DHT22;30457;53.590;9.922;2023-07-13T01:12:20;20.80;54.30
44729;DHT22;30457;53.590;9.922;2023-07-13T01:16:47;20.80;54.30
44729;DHT22;30457;53.590;9.922;2023-07-13T01:21:13;20.70;54.60
44729;DHT22;30457;53.590;9.922;2023-07-13T01:25:39;20.70;54.70
44729;DHT22;30457;53.590;9.922;2023-07-13T01:30:05;20.60;54.90
44729;DHT22;30457;53.590;9.922;2023-07-13T01:34:34;20.60;55.30
44729;DHT22;30457;53.590;9.922;2023-07-13T01:38:59;20.60;55.60
44729;DHT22;30457;53.590;9.922;2023-07-13T01:43:25;20.60;55.70
44729;DHT22;30457;53.590;9.922;2023-07-13T01:47:51;20.50;55.70
44729;DHT22;30457;53.590;9.922;2023-07-13T01:52:16;20.50;55.90
44729;DHT22;30457;53.590;9.922;2023-07-13T01:56:42;20.50;56.00
44729;DHT22;30457;53.590;9.922;2023-07-13T02:01:07;20.50;55.90
44729;DHT22;30457;53.590;9.922;2023-07-13T02:05:33;20.40;56.10
44729;DHT22;30457;53.590;9.922;2023-07-13T02:09:59;20.40;56.20
44729;DHT22;30457;53.590;9.922;2023-07-13T02:14:24;20.40;56.10
44729;DHT22;30457;53.590;9.922;2023-07-13T02:18:50;20.30;56.20
44729;DHT22;30457;53.590;9.922;2023-07-13T02:23:17;20.30;56.30
44729;DHT22;30457;53.590;9.922;2023-07-13T02:27:45;20.30;56.30
44729;DHT22;30457;53.590;9.922;2023-07-13T02:32:11;20.20;56.30
44729;DHT22;30457;53.590;9.922;2023-07-13T02:36:37;20.20;56.40
44729;DHT22;30457;53.590;9.922;2023-07-13T02:41:07;20.20;56.50
44729;DHT22;30457;53.590;9.922;2023-07-13T02:45:33;20.20;56.70
44729;DHT22;30457;53.590;9.922;2023-07-13T02:49:58;20.10;56.50
44729;DHT22;30457;53.590;9.922;2023-07-13T02:54:24;20.10;56.60
44729;DHT22;30457;53.590;9.922;2023-07-13T02:58:50;20.00;56.60
44729;DHT22;30457;53.590;9.922;2023-07-13T03:03:16;20.00;56.50
44729;DHT22;30457;53.590;9.922;2023-07-13T03:07:43;19.90;56.50
44729;DHT22;30457;53.590;9.922;2023-07-13T03:12:09;19.90;56.70
44729;DHT22;30457;53.590;9.922;2023-07-13T03:16:36;19.90;56.70
44729;DHT22;30457;53.590;9.922;2023-07-13T03:21:02;19.90;56.80
44729;DHT22;30457;53.590;9.922;2023-07-13T03:25:28;19.90;56.80
44729;DHT22;30457;53.590;9.922;2023-07-13T03:29:54;19.80;56.80
44729;DHT22;30457;53.590;9.922;2023-07-13T03:34:19;19.90;56.80
44729;DHT22;30457;53.590;9.922;2023-07-13T03:38:57;19.80;56.70
44729;DHT22;30457;53.590;9.922;2023-07-13T03:43:26;19.80;57.20
44729;DHT22;30457;53.590;9.922;2023-07-13T03:47:52;19.80;56.70
44729;DHT22;30457;53.590;9.922;2023-07-13T03:52:18;19.70;57.20
44729;DHT22;30457;53.590;9.922;2023-07-13T03:56:43;19.70;56.80
44729;DHT22;30457;53.590;9.922;2023-07-13T04:01:11;19.70;56.70
44729;DHT22;30457;53.590;9.922;2023-07-13T04:05:38;19.70;56.70
44729;DHT22;30457;53.590;9.922;2023-07-13T04:10:06;19.70;56.80
44729;DHT22;30457;53.590;9.922;2023-07-13T04:14:32;19.70;56.80
44729;DHT22;30457;53.590;9.922;2023-07-13T04:18:58;19.70;56.80
44729;DHT22;30457;53.590;9.922;2023-07-13T04:23:27;19.70;56.70
44729;DHT22;30457;53.590;9.922;2023-07-13T04:27:53;19.70;56.80
44729;DHT22;30457;53.590;9.922;2023-07-13T04:32:18;19.70;56.80
44729;DHT22;30457;53.590;9.922;2023-07-13T04:36:44;19.70;57.00
44729;DHT22;30457;53.590;9.922;2023-07-13T04:41:09;19.70;57.00
44729;DHT22;30457;53.590;9.922;2023-07-13T04:45:35;19.70;57.30
44729;DHT22;30457;53.590;9.922;2023-07-13T04:50:01;19.80;57.30
44729;DHT22;30457;53.590;9.922;2023-07-13T04:54:27;19.80;57.40
44729;DHT22;30457;53.590;9.922;2023-07-13T04:58:52;19.90;57.40
44729;DHT22;30457;53.590;9.922;2023-07-13T05:03:18;20.00;57.30
44729;DHT22;30457;53.590;9.922;2023-07-13T05:07:44;20.00;57.40
44729;DHT22;30457;53.590;9.922;2023-07-13T05:12:10;20.10;57.60
44729;DHT22;30457;53.590;9.922;2023-07-13T05:16:36;20.20;57.40
44729;DHT22;30457;53.590;9.922;2023-07-13T05:21:04;20.30;57.30
44729;DHT22;30457;53.590;9.922;2023-07-13T05:25:31;20.40;57.10
44729;DHT22;30457;53.590;9.922;2023-07-13T05:29:56;20.50;57.20
44729;DHT22;30457;53.590;9.922;2023-07-13T05:34:22;20.60;57.30
44729;DHT22;30457;53.590;9.922;2023-07-13T05:38:47;20.70;57.00
44729;DHT22;30457;53.590;9.922;2023-07-13T05:43:13;20.80;57.00
44729;DHT22;30457;53.590;9.922;2023-07-13T05:47:39;20.80;56.80
44729;DHT22;30457;53.590;9.922;2023-07-13T05:52:05;20.80;56.60
44729;DHT22;30457;53.590;9.922;2023-07-13T05:56:31;20.80;56.50
44729;DHT22;30457;53.590;9.922;2023-07-13T06:01:02;20.80;56.40
44729;DHT22;30457;53.590;9.922;2023-07-13T06:05:28;20.90;56.60
44729;DHT22;30457;53.590;9.922;2023-07-13T06:09:54;20.90;56.40
44729;DHT22;30457;53.590;9.922;2023-07-13T06:14:19;20.90;56.50
44729;DHT22;30457;53.590;9.922;2023-07-13T06:18:46;20.90;56.30
44729;DHT22;30457;53.590;9.922;2023-07-13T06:23:11;20.90;56.40
44729;DHT22;30457;53.590;9.922;2023-07-13T06:27:37;20.90;56.70
44729;DHT22;30457;53.590;9.922;2023-07-13T06:32:03;21.00;56.80
44729;DHT22;30457;53.590;9.922;2023-07-13T06:36:28;21.00;56.60
44729;DHT22;30457;53.590;9.922;2023-07-13T06:40:54;21.10;56.60
44729;DHT22;30457;53.590;9.922;2023-07-13T06:45:19;21.20;56.60
44729;DHT22;30457;53.590;9.922;2023-07-13T06:49:45;21.20;56.50
44729;DHT22;30457;53.590;9.922;2023-07-13T06:54:11;21.30;56.50
44729;DHT22;30457;53.590;9.922;2023-07-13T06:58:36;21.40;56.60
44729;DHT22;30457;53.590;9.922;2023-07-13T07:03:02;21.50;56.60
44729;DHT22;30457;53.590;9.922;2023-07-13T07:07:28;21.60;56.40
44729;DHT22;30457;53.590;9.922;2023-07-13T07:11:53;21.60;56.30
44729;DHT22;30457;53.590;9.922;2023-07-13T07:16:20;21.70;56.30
44729;DHT22;30457;53.590;9.922;2023-07-13T07:20:45;21.80;56.40
44729;DHT22;30457;53.590;9.922;2023-07-13T07:25:11;22.00;56.30
44729;DHT22;30457;53.590;9.922;2023-07-13T07:29:37;22.10;56.10
44729;DHT22;30457;53.590;9.922;2023-07-13T07:34:03;22.20;56.40
44729;DHT22;30457;53.590;9.922;2023-07-13T07:38:28;22.40;56.40
44729;DHT22;30457;53.590;9.922;2023-07-13T07:42:54;22.60;56.40
44729;DHT22;30457;53.590;9.922;2023-07-13T07:47:19;22.80;55.60
44729;DHT22;30457;53.590;9.922;2023-07-13T07:51:45;23.00;55.10
44729;DHT22;30457;53.590;9.922;2023-07-13T07:56:10;23.10;55.20
44729;DHT22;30457;53.590;9.922;2023-07-13T08:00:36;23.20;54.40
44729;DHT22;30457;53.590;9.922;2023-07-13T08:05:03;23.30;54.70
44729;DHT22;30457;53.590;9.922;2023-07-13T08:09:29;23.50;54.30
44729;DHT22;30457;53.590;9.922;2023-07-13T08:13:55;23.60;54.60
44729;DHT22;30457;53.590;9.922;2023-07-13T08:18:20;23.70;53.80
44729;DHT22;30457;53.590;9.922;2023-07-13T08:22:46;23.90;53.40
44729;DHT22;30457;53.590;9.922;2023-07-13T08:27:11;24.00;53.40
44729;DHT22;30457;53.590;9.922;2023-07-13T08:31:37;24.20;52.70
44729;DHT22;30457;53.590;9.922;2023-07-13T08:36:03;24.30;52.50
44729;DHT22;30457;53.590;9.922;2023-07-13T08:40:30;24.40;52.00
44729;DHT22;30457;53.590;9.922;2023-07-13T08:49:30;24.50;51.60
44729;DHT22;30457;53.590;9.922;2023-07-13T08:54:01;24.60;51.80
44729;DHT22;30457;53.590;9.922;2023-07-13T08:58:28;24.60;51.80
44729;DHT22;30457;53.590;9.922;2023-07-13T09:02:59;24.70;51.20
44729;DHT22;30457;53.590;9.922;2023-07-13T09:16:54;25.10;49.70
44729;DHT22;30457;53.590;9.922;2023-07-13T09:21:29;25.20;49.80
44729;DHT22;30457;53.590;9.922;2023-07-13T09:26:17;25.20;48.50
44729;DHT22;30457;53.590;9.922;2023-07-13T09:35:31;25.30;49.10
44729;DHT22;30457;53.590;9.922;2023-07-13T09:39:59;25.30;49.60
44729;DHT22;30457;53.590;9.922;2023-07-13T09:44:38;25.50;49.50
44729;DHT22;30457;53.590;9.922;2023-07-13T09:49:04;25.70;49.10
44729;DHT22;30457;53.590;9.922;2023-07-13T09:53:30;25.90;49.80
44729;DHT22;30457;53.590;9.922;2023-07-13T09:57:56;26.10;49.30
44729;DHT22;30457;53.590;9.922;2023-07-13T10:02:32;26.30;48.80
44729;DHT22;30457;53.590;9.922;2023-07-13T10:07:09;26.50;47.00
44729;DHT22;30457;53.590;9.922;2023-07-13T10:11:39;26.50;46.20
44729;DHT22;30457;53.590;9.922;2023-07-13T10:16:07;26.60;45.60
44729;DHT22;30457;53.590;9.922;2023-07-13T10:20:33;26.60;46.60
44729;DHT22;30457;53.590;9.922;2023-07-13T10:24:59;26.70;45.80
44729;DHT22;30457;53.590;9.922;2023-07-13T10:29:28;26.80;45.30
44729;DHT22;30457;53.590;9.922;2023-07-13T10:33:54;26.90;44.70
44729;DHT22;30457;53.590;9.922;2023-07-13T10:38:22;27.10;44.90
44729;DHT22;30457;53.590;9.922;2023-07-13T10:42:50;27.30;45.10
44729;DHT22;30457;53.590;9.922;2023-07-13T10:47:17;27.50;44.10
44729;DHT22;30457;53.590;9.922;2023-07-13T10:51:46;27.70;43.60
44729;DHT22;30457;53.590;9.922;2023-07-13T10:56:42;27.90;43.10
44729;DHT22;30457;53.590;9.922;2023-07-13T11:01:16;28.10;42.40
44729;DHT22;30457;53.590;9.922;2023-07-13T11:05:42;28.20;42.20
44729;DHT22;30457;53.590;9.922;2023-07-13T11:10:46;28.30;42.30
44729;DHT22;30457;53.590;9.922;2023-07-13T11:15:13;28.40;41.10
44729;DHT22;30457;53.590;9.922;2023-07-13T11:19:40;28.50;40.00
44729;DHT22;30457;53.590;9.922;2023-07-13T11:28:41;28.40;39.60
44729;DHT22;30457;53.590;9.922;2023-07-13T11:37:51;28.40;40.20
44729;DHT22;30457;53.590;9.922;2023-07-13T11:42:18;28.50;40.80
44729;DHT22;30457;53.590;9.922;2023-07-13T11:46:46;28.50;40.40
44729;DHT22;30457;53.590;9.922;2023-07-13T11:51:24;28.60;40.00
44729;DHT22;30457;53.590;9.922;2023-07-13T11:55:51;28.60;39.60
44729;DHT22;30457;53.590;9.922;2023-07-13T12:00:21;28.50;39.10
44729;DHT22;30457;53.590;9.922;2023-07-13T12:04:47;28.40;39.30
44729;DHT22;30457;53.590;9.922;2023-07-13T12:09:14;28.40;40.00
44729;DHT22;30457;53.590;9.922;2023-07-13T12:13:44;28.30;39.70
44729;DHT22;30457;53.590;9.922;2023-07-13T12:18:15;28.10;40.50
44729;DHT22;30457;53.590;9.922;2023-07-13T12:22:46;27.70;41.60
44729;DHT22;30457;53.590;9.922;2023-07-13T12:27:24;27.20;41.60
44729;DHT22;30457;53.590;9.922;2023-07-13T12:31:50;26.70;43.10
44729;DHT22;30457;53.590;9.922;2023-07-13T12:36:17;26.20;44.00
44729;DHT22;30457;53.590;9.922;2023-07-13T12:40:43;25.90;44.40
44729;DHT22;30457;53.590;9.922;2023-07-13T12:49:56;25.70;49.40
44729;DHT22;30457;53.590;9.922;2023-07-13T12:54:22;25.80;49.30
44729;DHT22;30457;53.590;9.922;2023-07-13T12:58:49;26.00;47.90
44729;DHT22;30457;53.590;9.922;2023-07-13T13:03:35;26.10;47.70
44729;DHT22;30457;53.590;9.922;2023-07-13T13:08:02;26.20;45.70
44729;DHT22;30457;53.590;9.922;2023-07-13T13:12:28;26.10;45.60
44729;DHT22;30457;53.590;9.922;2023-07-13T13:16:53;25.90;44.70
44729;DHT22;30457;53.590;9.922;2023-07-13T13:21:20;25.70;45.90
44729;DHT22;30457;53.590;9.922;2023-07-13T13:25:48;25.60;46.80
44729;DHT22;30457;53.590;9.922;2023-07-13T13:30:16;25.60;47.60
44729;DHT22;30457;53.590;9.922;2023-07-13T13:34:42;25.60;46.70
44729;DHT22;30457;53.590;9.922;2023-07-13T13:39:25;25.60;47.00
44729;DHT22;30457;53.590;9.922;2023-07-13T13:43:52;25.70;47.80
44729;DHT22;30457;53.590;9.922;2023-07-13T13:48:20;25.80;46.80
44729;DHT22;30457;53.590;9.922;2023-07-13T13:52:47;25.80;46.70
44729;DHT22;30457;53.590;9.922;2023-07-13T13:57:14;25.90;46.10
44729;DHT22;30457;53.590;9.922;2023-07-13T14:01:41;25.90;46.10
44729;DHT22;30457;53.590;9.922;2023-07-13T14:06:11;25.80;46.80
44729;DHT22;30457;53.590;9.922;2023-07-13T14:10:37;25.90;46.80
44729;DHT22;30457;53.590;9.922;2023-07-13T14:15:03;26.10;46.60
44729;DHT22;30457;53.590;9.922;2023-07-13T14:19:28;26.40;47.20
44729;DHT22;30457;53.590;9.922;2023-07-13T14:23:54;26.50;45.90
44729;DHT22;30457;53.590;9.922;2023-07-13T14:28:21;26.60;46.50
44729;DHT22;30457;53.590;9.922;2023-07-13T14:32:48;26.60;45.90
44729;DHT22;30457;53.590;9.922;2023-07-13T14:37:15;26.60;46.10
44729;DHT22;30457;53.590;9.922;2023-07-13T14:41:41;26.70;46.10
44729;DHT22;30457;53.590;9.922;2023-07-13T14:46:11;26.70;46.00
44729;DHT22;30457;53.590;9.922;2023-07-13T14:50:43;26.70;44.80
44729;DHT22;30457;53.590;9.922;2023-07-13T14:55:17;26.50;44.30
44729;DHT22;30457;53.590;9.922;2023-07-13T14:59:43;26.40;44.40
44729;DHT22;30457;53.590;9.922;2023-07-13T15:04:11;26.20;44.90
44729;DHT22;30457;53.590;9.922;2023-07-13T15:08:37;26.10;45.40
44729;DHT22;30457;53.590;9.922;2023-07-13T15:13:18;26.10;45.60
44729;DHT22;30457;53.590;9.922;2023-07-13T15:17:46;26.10;45.30
44729;DHT22;30457;53.590;9.922;2023-07-13T15:22:12;26.10;45.60
44729;DHT22;30457;53.590;9.922;2023-07-13T15:26:37;26.10;46.10
44729;DHT22;30457;53.590;9.922;2023-07-13T15:31:21;26.10;45.40
44729;DHT22;30457;53.590;9.922;2023-07-13T15:35:47;26.20;45.40
44729;DHT22;30457;53.590;9.922;2023-07-13T15:40:14;26.10;45.50
44729;DHT22;30457;53.590;9.922;2023-07-13T15:44:40;26.10;45.60
44729;DHT22;30457;53.590;9.922;2023-07-13T15:49:09;26.10;46.00
44729;DHT22;30457;53.590;9.922;2023-07-13T15:53:35;26.10;45.50
44729;DHT22;30457;53.590;9.922;2023-07-13T15:58:03;26.20;45.20
44729;DHT22;30457;53.590;9.922;2023-07-13T16:02:29;26.10;44.80
44729;DHT22;30457;53.590;9.922;2023-07-13T16:06:54;26.10;44.20
44729;DHT22;30457;53.590;9.922;2023-07-13T16:11:29;26.00;44.00
44729;DHT22;30457;53.590;9.922;2023-07-13T16:15:57;26.00;43.30
44729;DHT22;30457;53.590;9.922;2023-07-13T16:20:23;25.90;43.90
44729;DHT22;30457;53.590;9.922;2023-07-13T16:24:50;25.80;44.20
44729;DHT22;30457;53.590;9.922;2023-07-13T16:29:23;25.70;43.80
44729;DHT22;30457;53.590;9.922;2023-07-13T16:33:49;25.70;43.50
44729;DHT22;30457;53.590;9.922;2023-07-13T16:38:19;25.60;43.40
44729;DHT22;30457;53.590;9.922;2023-07-13T16:42:45;25.50;43.30
44729;DHT22;30457;53.590;9.922;2023-07-13T16:47:15;25.50;43.60
44729;DHT22;30457;53.590;9.922;2023-07-13T16:51:41;25.40;43.10
44729;DHT22;30457;53.590;9.922;2023-07-13T16:56:13;25.40;43.20
44729;DHT22;30457;53.590;9.922;2023-07-13T17:00:39;25.30;43.70
44729;DHT22;30457;53.590;9.922;2023-07-13T17:05:05;25.30;44.00
44729;DHT22;30457;53.590;9.922;2023-07-13T17:09:31;25.40;44.20
44729;DHT22;30457;53.590;9.922;2023-07-13T17:13:57;25.60;45.30
44729;DHT22;30457;53.590;9.922;2023-07-13T17:18:25;25.80;44.90
44729;DHT22;30457;53.590;9.922;2023-07-13T17:22:52;26.00;44.20
44729;DHT22;30457;53.590;9.922;2023-07-13T17:27:18;26.00;43.30
44729;DHT22;30457;53.590;9.922;2023-07-13T17:31:44;26.00;43.30
44729;DHT22;30457;53.590;9.922;2023-07-13T17:36:15;25.80;43.10
44729;DHT22;30457;53.590;9.922;2023-07-13T17:40:41;25.70;43.10
44729;DHT22;30457;53.590;9.922;2023-07-13T17:45:07;25.50;43.10
44729;DHT22;30457;53.590;9.922;2023-07-13T17:49:33;25.40;43.50
44729;DHT22;30457;53.590;9.922;2023-07-13T17:53:58;25.20;43.60
44729;DHT22;30457;53.590;9.922;2023-07-13T17:58:24;25.10;43.50
44729;DHT22;30457;53.590;9.922;2023-07-13T18:02:50;25.00;44.00
44729;DHT22;30457;53.590;9.922;2023-07-13T18:07:15;24.90;44.20
44729;DHT22;30457;53.590;9.922;2023-07-13T18:11:43;24.90;44.50
44729;DHT22;30457;53.590;9.922;2023-07-13T18:16:18;24.80;44.70
44729;DHT22;30457;53.590;9.922;2023-07-13T18:20:44;24.80;44.50
44729;DHT22;30457;53.590;9.922;2023-07-13T18:25:16;24.70;44.70
44729;DHT22;30457;53.590;9.922;2023-07-13T18:29:42;24.60;44.70
44729;DHT22;30457;53.590;9.922;2023-07-13T18:34:08;24.60;45.20
44729;DHT22;30457;53.590;9.922;2023-07-13T18:38:34;24.50;45.20
44729;DHT22;30457;53.590;9.922;2023-07-13T18:43:02;24.50;45.60
44729;DHT22;30457;53.590;9.922;2023-07-13T18:47:28;24.50;45.40
44729;DHT22;30457;53.590;9.922;2023-07-13T18:51:59;24.40;45.20
44729;DHT22;30457;53.590;9.922;2023-07-13T18:56:25;24.30;45.60
44729;DHT22;30457;53.590;9.922;2023-07-13T19:00:52;24.20;45.60
44729;DHT22;30457;53.590;9.922;2023-07-13T19:05:26;24.20;45.80
44729;DHT22;30457;53.590;9.922;2023-07-13T19:09:54;24.10;46.00
44729;DHT22;30457;53.590;9.922;2023-07-13T19:14:22;24.10;46.40
44729;DHT22;30457;53.590;9.922;2023-07-13T19:18:49;24.00;46.30
44729;DHT22;30457;53.590;9.922;2023-07-13T19:23:40;23.90;46.40
44729;DHT22;30457;53.590;9.922;2023-07-13T19:28:29;23.80;46.80
44729;DHT22;30457;53.590;9.922;2023-07-13T19:32:58;23.70;47.40
44729;DHT22;30457;53.590;9.922;2023-07-13T19:37:24;23.60;47.40
44729;DHT22;30457;53.590;9.922;2023-07-13T19:41:50;23.60;47.50
44729;DHT22;30457;53.590;9.922;2023-07-13T19:46:28;23.50;47.60
44729;DHT22;30457;53.590;9.922;2023-07-13T19:50:54;23.50;48.10
44729;DHT22;30457;53.590;9.922;2023-07-13T19:55:21;23.40;47.80
44729;DHT22;30457;53.590;9.922;2023-07-13T19:59:47;23.40;47.50
44729;DHT22;30457;53.590;9.922;2023-07-13T20:04:17;23.30;47.50
44729;DHT22;30457;53.590;9.922;2023-07-13T20:08:42;23.20;47.40
44729;DHT22;30457;53.590;9.922;2023-07-13T20:13:13;23.10;47.40
44729;DHT22;30457;53.590;9.922;2023-07-13T20:17:40;23.00;47.50
44729;DHT22;30457;53.590;9.922;2023-07-13T20:22:11;22.90;47.60
44729;DHT22;30457;53.590;9.922;2023-07-13T20:26:37;22.80;47.80
44729;DHT22;30457;53.590;9.922;2023-07-13T20:31:02;22.70;47.90
44729;DHT22;30457;53.590;9.922;2023-07-13T20:35:32;22.60;48.00
44729;DHT22;30457;53.590;9.922;2023-07-13T20:39:59;22.60;48.20
44729;DHT22;30457;53.590;9.922;2023-07-13T20:44:25;22.50;48.40
44729;DHT22;30457;53.590;9.922;2023-07-13T20:48:50;22.50;48.60
44729;DHT22;30457;53.590;9.922;2023-07-13T20:53:16;22.40;48.70
44729;DHT22;30457;53.590;9.922;2023-07-13T20:57:42;22.30;49.00
44729;DHT22;30457;53.590;9.922;2023-07-13T21:02:25;22.30;49.00
44729;DHT22;30457;53.590;9.922;2023-07-13T21:06:52;22.20;49.40
44729;DHT22;30457;53.590;9.922;2023-07-13T21:11:17;22.20;49.20
44729;DHT22;30457;53.590;9.922;2023-07-13T21:15:45;22.10;49.30
44729;DHT22;30457;53.590;9.922;2023-07-13T21:24:42;22.00;49.80
44729;DHT22;30457;53.590;9.922;2023-07-13T21:29:08;21.90;49.70
44729;DHT22;30457;53.590;9.922;2023-07-13T21:33:35;21.90;49.90
44729;DHT22;30457;53.590;9.922;2023-07-13T21:38:01;21.80;50.10
44729;DHT22;30457;53.590;9.922;2023-07-13T21:42:27;21.80;50.10
44729;DHT22;30457;53.590;9.922;2023-07-13T21:46:53;21.70;50.20
44729;DHT22;30457;53.590;9.922;2023-07-13T21:51:22;21.70;50.40
44729;DHT22;30457;53.590;9.922;2023-07-13T21:55:50;21.60;50.70
44729;DHT22;30457;53.590;9.922;2023-07-13T22:00:19;21.60;50.70
44729;DHT22;30457;53.590;9.922;2023-07-13T22:04:45;21.60;50.80
44729;DHT22;30457;53.590;9.922;2023-07-13T22:09:16;21.50;51.00
44729;DHT22;30457;53.590;9.922;2023-07-13T22:13:42;21.50;51.30
44729;DHT22;30457;53.590;9.922;2023-07-13T22:18:16;21.40;51.20
44729;DHT22;30457;53.590;9.922;2023-07-13T22:22:42;21.40;51.40
44729;DHT22;30457;53.590;9.922;2023-07-13T22:27:10;21.30;51.30
44729;DHT22;30457;53.590;9.922;2023-07-13T22:31:36;21.30;51.40
44729;DHT22;30457;53.590;9.922;2023-07-13T22:36:01;21.30;51.60
44729;DHT22;30457;53.590;9.922;2023-07-13T22:40:28;21.30;51.60
44729;DHT22;30457;53.590;9.922;2023-07-13T22:44:54;21.20;51.60
44729;DHT22;30457;53.590;9.922;2023-07-13T22:49:22;21.20;52.40
44729;DHT22;30457;53.590;9.922;2023-07-13T22:53:51;21.20;52.00
44729;DHT22;30457;53.590;9.922;2023-07-13T22:58:18;21.10;52.00
44729;DHT22;30457;53.590;9.922;2023-07-13T23:02:44;21.10;52.30
44729;DHT22;30457;53.590;9.922;2023-07-13T23:07:10;21.10;52.50
44729;DHT22;30457;53.590;9.922;2023-07-13T23:11:36;21.00;52.40
44729;DHT22;30457;53.590;9.922;2023-07-13T23:16:02;21.00;52.50
44729;DHT22;30457;53.590;9.922;2023-07-13T23:20:30;20.90;52.60
44729;DHT22;30457;53.590;9.922;2023-07-13T23:24:56;20.90;52.70
44729;DHT22;30457;53.590;9.922;2023-07-13T23:29:21;20.90;52.70
44729;DHT22;30457;53.590;9.922;2023-07-13T23:33:47;20.80;52.70
44729;DHT22;30457;53.590;9.922;2023-07-13T23:38:14;20.80;52.70
44729;DHT22;30457;53.590;9.922;2023-07-13T23:42:41;20.80;52.80
44729;DHT22;30457;53.590;9.922;2023-07-13T23:47:08;20.70;53.00
44729;DHT22;30457;53.590;9.922;2023-07-13T23:51:33;20.70;53.20
44729;DHT22;30457;53.590;9.922;2023-07-13T23:55:59;20.60;53.10
